Time;durP1;ratioP1;P1;durP2;ratioP2;P2;SDS_P1;SDS_P2;PMS_P1;PMS_P2;Temp;Humidity;BMP_temperature;BMP_pressure;BME280_temperature;BME280_humidity;BME280_pressure;Samples;Min_cycle;Max_cycle;Signal;HPM_P1;HPM_P2
2022/12/11 00:01:31;;;;;;;27.17;13.75;;;;;;;;;;4903177;29;20037;-84
2022/12/11 00:03:56;;;;;;;30.77;14.68;;;;;;;;;;4887807;29;20039;-82
2022/12/11 00:06:22;;;;;;;28.15;14.20;;;;;;;;;;4888486;29;20041;-83
2022/12/11 00:08:52;;;;;;;27.92;14.05;;;;;;;;;;4888475;29;20079;-83
2022/12/11 00:11:19;;;;;;;28.20;14.05;;;;;;;;;;4888623;29;20032;-84
2022/12/11 00:13:45;;;;;;;29.08;14.57;;;;;;;;;;4888076;29;20021;-84
2022/12/11 00:16:11;;;;;;;29.52;14.50;;;;;;;;;;4904947;29;20040;-83
2022/12/11 00:18:37;;;;;;;26.73;13.30;;;;;;;;;;4905103;29;20041;-83
2022/12/11 00:21:05;;;;;;;26.73;14.02;;;;;;;;;;4888024;29;20037;-83
2022/12/11 00:23:31;;;;;;;28.20;13.77;;;;;;;;;;4888374;29;20410;-82
2022/12/11 00:25:56;;;;;;;27.45;13.88;;;;;;;;;;4887728;29;20123;-82
2022/12/11 00:28:22;;;;;;;27.48;14.18;;;;;;;;;;4888207;29;20024;-84
2022/12/11 00:30:48;;;;;;;27.83;14.35;;;;;;;;;;4903959;29;20573;-84
2022/12/11 00:33:14;;;;;;;25.17;13.95;;;;;;;;;;4887606;29;20558;-85
2022/12/11 00:35:42;;;;;;;27.08;14.07;;;;;;;;;;4904761;29;20403;-83
2022/12/11 00:38:12;;;;;;;27.30;14.25;;;;;;;;;;4904082;29;20045;-83
2022/12/11 00:40:38;;;;;;;25.58;13.65;;;;;;;;;;4904850;29;20044;-83
2022/12/11 00:43:03;;;;;;;25.77;13.45;;;;;;;;;;4887996;29;20028;-83
2022/12/11 00:45:29;;;;;;;27.35;13.50;;;;;;;;;;4887782;29;20041;-84
2022/12/11 00:47:54;;;;;;;27.33;14.07;;;;;;;;;;4904737;29;20036;-83
2022/12/11 00:50:20;;;;;;;26.85;14.25;;;;;;;;;;4905318;29;20045;-82
2022/12/11 00:52:45;;;;;;;28.40;14.40;;;;;;;;;;4887170;29;20083;-84
2022/12/11 00:55:12;;;;;;;26.33;14.23;;;;;;;;;;4905215;29;20123;-84
2022/12/11 00:57:38;;;;;;;25.13;14.00;;;;;;;;;;4904466;29;20040;-84
2022/12/11 01:00:07;;;;;;;28.17;14.10;;;;;;;;;;4903090;29;20502;-84
2022/12/11 01:02:33;;;;;;;28.42;14.27;;;;;;;;;;4905431;29;20100;-83
2022/12/11 01:04:59;;;;;;;26.85;14.10;;;;;;;;;;4887533;29;20044;-84
2022/12/11 01:07:24;;;;;;;27.00;13.27;;;;;;;;;;4903257;29;20091;-84
2022/12/11 01:12:35;;;;;;;26.92;13.88;;;;;;;;;;4904746;29;20092;-84
2022/12/11 01:15:01;;;;;;;28.13;14.60;;;;;;;;;;4904053;29;20040;-83
2022/12/11 01:17:26;;;;;;;26.88;13.70;;;;;;;;;;4905003;29;20052;-83
2022/12/11 01:19:54;;;;;;;29.42;14.82;;;;;;;;;;4904251;29;20047;-84
2022/12/11 01:22:20;;;;;;;28.95;14.25;;;;;;;;;;4888075;29;20045;-85
2022/12/11 01:24:45;;;;;;;26.77;13.35;;;;;;;;;;4936330;23;20050;-82
2022/12/11 01:27:11;;;;;;;25.75;12.82;;;;;;;;;;4928743;29;20063;-82
2022/12/11 01:29:36;;;;;;;27.80;13.82;;;;;;;;;;4927722;29;20039;-83
2022/12/11 01:32:02;;;;;;;27.17;13.38;;;;;;;;;;4911515;29;20024;-82
2022/12/11 01:34:29;;;;;;;25.67;12.48;;;;;;;;;;4927554;29;20063;-82
2022/12/11 01:36:54;;;;;;;26.13;13.55;;;;;;;;;;4910337;29;20036;-82
2022/12/11 01:39:20;;;;;;;22.67;12.05;;;;;;;;;;4928509;29;20569;-82
2022/12/11 01:41:45;;;;;;;24.05;12.90;;;;;;;;;;4911259;29;20036;-82
2022/12/11 01:44:14;;;;;;;25.90;13.07;;;;;;;;;;4928711;29;20497;-82
2022/12/11 01:46:40;;;;;;;24.77;12.48;;;;;;;;;;4908491;29;20040;-82
2022/12/11 01:49:11;;;;;;;25.60;13.02;;;;;;;;;;4925615;29;20032;-81
2022/12/11 01:51:55;;;;;;;26.27;13.23;;;;;;;;;;4908503;29;20040;-82
2022/12/11 01:54:22;;;;;;;;;;;;;;;;;;4927390;29;20042;-81
2022/12/11 01:56:50;;;;;;;23.20;11.73;;;;;;;;;;4928077;29;19919;-82
2022/12/11 01:59:19;;;;;;;22.88;11.55;;;;;;;;;;4910964;29;20075;-81
2022/12/11 02:01:46;;;;;;;22.73;11.88;;;;;;;;;;4910293;29;20067;-81
2022/12/11 02:04:14;;;;;;;21.33;11.23;;;;;;;;;;4928126;29;20411;-82
2022/12/11 02:06:46;;;;;;;18.60;10.90;;;;;;;;;;4927908;29;20047;-82
2022/12/11 02:09:15;;;;;;;20.13;10.90;;;;;;;;;;4911174;29;20071;-82
2022/12/11 02:12:05;;;;;;;22.10;10.95;;;;;;;;;;4928378;29;20027;-82
2022/12/11 02:15:01;;;;;;;23.95;11.35;;;;;;;;;;4910515;29;20067;-81
2022/12/11 02:18:14;;;;;;;20.80;10.98;;;;;;;;;;4906808;29;20047;-81
2022/12/11 02:20:50;;;;;;;22.27;11.20;;;;;;;;;;4860877;29;20047;-82
2022/12/11 02:23:32;;;;;;;24.52;11.93;;;;;;;;;;4908965;29;20043;-82
2022/12/11 02:26:19;;;;;;;22.45;11.07;;;;;;;;;;4921374;29;20035;-81
2022/12/11 02:28:52;;;;;;;22.67;10.98;;;;;;;;;;4950215;29;20059;-81
2022/12/11 02:31:23;;;;;;;23.13;11.25;;;;;;;;;;4933674;29;20043;-82
2022/12/11 02:34:01;;;;;;;23.55;11.32;;;;;;;;;;4950031;29;20513;-82
2022/12/11 02:36:32;;;;;;;21.42;11.10;;;;;;;;;;4932335;29;20064;-82
2022/12/11 02:39:00;;;;;;;25.00;11.88;;;;;;;;;;4932614;29;20050;-82
2022/12/11 02:41:26;;;;;;;25.88;12.25;;;;;;;;;;4949198;29;20031;-81
2022/12/11 02:43:55;;;;;;;24.85;12.27;;;;;;;;;;4933054;29;20087;-81
2022/12/11 02:46:22;;;;;;;25.65;13.40;;;;;;;;;;4950660;29;20034;-82
2022/12/11 02:48:50;;;;;;;21.90;11.95;;;;;;;;;;4948167;29;20055;-81
2022/12/11 02:51:20;;;;;;;25.02;12.73;;;;;;;;;;4950001;29;20043;-81
2022/12/11 02:53:47;;;;;;;23.95;12.55;;;;;;;;;;4948885;29;20485;-82
2022/12/11 02:56:21;;;;;;;23.70;12.00;;;;;;;;;;4932168;29;20039;-81
2022/12/11 02:58:54;;;;;;;22.10;11.52;;;;;;;;;;4949466;29;20556;-81
2022/12/11 03:01:19;;;;;;;;;;;;;;;;;;4950288;29;20031;-80
2022/12/11 03:03:45;;;;;;;20.40;9.85;;;;;;;;;;4932552;29;20331;-82
2022/12/11 03:06:15;;;;;;;16.40;9.10;;;;;;;;;;4949334;29;20032;-83
2022/12/11 03:08:41;;;;;;;17.23;8.95;;;;;;;;;;4948804;29;20533;-83
2022/12/11 03:11:10;;;;;;;16.40;8.45;;;;;;;;;;4931850;29;20104;-81
2022/12/11 03:13:37;;;;;;;14.50;8.57;;;;;;;;;;4949716;29;20036;-81
2022/12/11 03:16:15;;;;;;;16.45;8.68;;;;;;;;;;4949650;29;20070;-82
2022/12/11 03:18:46;;;;;;;14.68;7.95;;;;;;;;;;4949644;29;20047;-82
2022/12/11 03:21:39;;;;;;;15.70;8.48;;;;;;;;;;4931781;29;20100;-82
2022/12/11 03:24:11;;;;;;;13.30;7.05;;;;;;;;;;4948950;29;20050;-82
2022/12/11 03:26:45;;;;;;;14.37;7.67;;;;;;;;;;4949355;29;20040;-82
2022/12/11 03:29:18;;;;;;;15.00;7.25;;;;;;;;;;4932592;29;20042;-82
2022/12/11 03:31:57;;;;;;;15.55;7.65;;;;;;;;;;4917005;29;20050;-82
2022/12/11 03:35:00;;;;;;;15.00;7.75;;;;;;;;;;4948746;29;20060;-81
2022/12/11 03:37:30;;;;;;;15.90;8.75;;;;;;;;;;4932133;29;20036;-82
2022/12/11 03:40:00;;;;;;;18.27;9.30;;;;;;;;;;4948637;29;20039;-82
2022/12/11 03:42:26;;;;;;;19.55;9.27;;;;;;;;;;4948810;29;20040;-81
2022/12/11 03:44:55;;;;;;;18.27;9.63;;;;;;;;;;4946508;29;20034;-82
2022/12/11 03:47:24;;;;;;;21.70;10.95;;;;;;;;;;4928425;29;20032;-82
2022/12/11 03:49:51;;;;;;;20.42;10.40;;;;;;;;;;4945451;29;20070;-82
2022/12/11 03:52:18;;;;;;;22.00;10.70;;;;;;;;;;4947837;29;20071;-81
2022/12/11 03:54:47;;;;;;;21.98;10.90;;;;;;;;;;4929026;29;20036;-81
2022/12/11 03:57:16;;;;;;;21.60;11.23;;;;;;;;;;4945848;29;20047;-81
2022/12/11 03:59:43;;;;;;;21.90;11.43;;;;;;;;;;4946258;29;20405;-81
2022/12/11 04:02:09;;;;;;;23.88;11.70;;;;;;;;;;4930606;29;20051;-81
2022/12/11 04:04:36;;;;;;;24.52;11.40;;;;;;;;;;4928184;29;20040;-82
2022/12/11 04:07:02;;;;;;;27.40;12.27;;;;;;;;;;4929347;29;20122;-82
2022/12/11 04:09:27;;;;;;;24.67;11.98;;;;;;;;;;4946232;29;20044;-82
2022/12/11 04:11:53;;;;;;;23.90;11.68;;;;;;;;;;4945905;29;20043;-83
2022/12/11 04:17:02;;;;;;;21.70;11.40;;;;;;;;;;4944777;29;20130;-82
2022/12/11 04:25:02;;;;;;;20.38;11.32;;;;;;;;;;4946989;29;20036;-83
2022/12/11 04:30:19;;;;;;;24.73;12.15;;;;;;;;;;4947700;29;20099;-82
2022/12/11 04:32:44;;;;;;;22.73;11.40;;;;;;;;;;4927961;29;20111;-82
2022/12/11 04:35:10;;;;;;;24.90;11.60;;;;;;;;;;4944291;29;20066;-82
2022/12/11 04:37:36;;;;;;;24.83;12.05;;;;;;;;;;4947203;29;20074;-82
2022/12/11 04:40:04;;;;;;;23.25;11.32;;;;;;;;;;4947618;29;20040;-83
2022/12/11 04:42:30;;;;;;;23.15;11.75;;;;;;;;;;4947132;29;20046;-82
2022/12/11 04:44:55;;;;;;;22.63;12.15;;;;;;;;;;4946805;29;20035;-82
2022/12/11 04:47:21;;;;;;;23.13;11.38;;;;;;;;;;4947532;29;20028;-82
2022/12/11 04:49:46;;;;;;;21.92;11.30;;;;;;;;;;4947465;29;20489;-83
2022/12/11 04:52:12;;;;;;;22.05;11.40;;;;;;;;;;4947654;29;20062;-83
2022/12/11 04:54:37;;;;;;;24.70;11.95;;;;;;;;;;4929715;29;20039;-83
2022/12/11 04:57:03;;;;;;;22.73;11.40;;;;;;;;;;4946985;29;20478;-83
2022/12/11 04:59:29;;;;;;;22.63;10.85;;;;;;;;;;4947493;29;20043;-82
2022/12/11 05:01:54;;;;;;;23.13;11.70;;;;;;;;;;4947990;29;20042;-82
2022/12/11 05:04:20;;;;;;;23.35;11.80;;;;;;;;;;4947900;29;20036;-83
2022/12/11 05:06:48;;;;;;;21.85;10.75;;;;;;;;;;4947328;29;20039;-82
2022/12/11 05:09:14;;;;;;;21.15;10.90;;;;;;;;;;4929363;29;20043;-82
2022/12/11 05:11:39;;;;;;;21.88;10.70;;;;;;;;;;4910801;29;20485;-82
2022/12/11 05:14:05;;;;;;;21.45;11.02;;;;;;;;;;4924899;29;20076;-82
2022/12/11 05:16:30;;;;;;;19.90;10.82;;;;;;;;;;4923698;29;20080;-81
2022/12/11 05:18:56;;;;;;;23.40;11.13;;;;;;;;;;4928594;29;20036;-81
2022/12/11 05:21:21;;;;;;;21.52;12.07;;;;;;;;;;4910783;29;20050;-82
2022/12/11 05:23:47;;;;;;;20.85;10.45;;;;;;;;;;4927658;29;20040;-81
2022/12/11 05:26:18;;;;;;;20.30;10.93;;;;;;;;;;4909914;29;20068;-82
2022/12/11 05:28:45;;;;;;;20.35;10.95;;;;;;;;;;4927450;29;20047;-82
2022/12/11 05:31:13;;;;;;;19.00;9.98;;;;;;;;;;4927580;29;20044;-83
2022/12/11 05:33:39;;;;;;;18.45;9.85;;;;;;;;;;4927912;29;20067;-82
2022/12/11 05:36:05;;;;;;;19.77;10.43;;;;;;;;;;4927663;29;20039;-82
2022/12/11 05:38:31;;;;;;;15.50;9.23;;;;;;;;;;4910804;29;20040;-82
2022/12/11 05:41:02;;;;;;;20.67;10.10;;;;;;;;;;4925993;29;20047;-83
2022/12/11 05:43:30;;;;;;;20.88;10.57;;;;;;;;;;4928026;29;20052;-82
2022/12/11 05:46:10;;;;;;;18.50;9.65;;;;;;;;;;4927500;29;20032;-82
2022/12/11 05:48:37;;;;;;;17.70;9.63;;;;;;;;;;4927948;29;20087;-83
2022/12/11 05:51:04;;;;;;;18.02;9.75;;;;;;;;;;4927883;29;20047;-82
2022/12/11 05:53:30;;;;;;;19.23;10.52;;;;;;;;;;4927617;29;20043;-82
2022/12/11 05:56:04;;;;;;;19.33;10.27;;;;;;;;;;4927327;29;20039;-82
2022/12/11 05:58:30;;;;;;;19.80;9.15;;;;;;;;;;4927507;29;20139;-81
2022/12/11 06:00:55;;;;;;;19.30;10.23;;;;;;;;;;4931257;29;20401;-81
2022/12/11 06:03:21;;;;;;;17.52;9.40;;;;;;;;;;4899279;29;20047;-82
2022/12/11 06:05:46;;;;;;;16.05;9.15;;;;;;;;;;4914864;29;20039;-82
2022/12/11 06:08:12;;;;;;;18.30;9.30;;;;;;;;;;4932224;29;20024;-81
2022/12/11 06:10:44;;;;;;;18.85;9.00;;;;;;;;;;4931420;29;20036;-82
2022/12/11 06:13:10;;;;;;;17.15;8.90;;;;;;;;;;4914263;29;20031;-82
2022/12/11 06:15:35;;;;;;;14.70;8.40;;;;;;;;;;4913039;29;20074;-83
2022/12/11 06:18:01;;;;;;;17.75;9.05;;;;;;;;;;4931535;29;20039;-82
2022/12/11 06:20:26;;;;;;;15.18;8.57;;;;;;;;;;4931436;29;20133;-82
2022/12/11 06:22:51;;;;;;;15.85;8.48;;;;;;;;;;4931592;29;20040;-82
2022/12/11 06:25:17;;;;;;;16.77;9.23;;;;;;;;;;4914487;29;20056;-82
2022/12/11 06:27:42;;;;;;;16.13;8.10;;;;;;;;;;4930880;29;20039;-83
2022/12/11 06:30:08;;;;;;;15.32;8.15;;;;;;;;;;4915050;29;20101;-83
2022/12/11 06:32:34;;;;;;;13.10;7.60;;;;;;;;;;4913898;29;20051;-82
2022/12/11 06:34:59;;;;;;;13.05;7.90;;;;;;;;;;4897585;29;20040;-82
2022/12/11 06:37:25;;;;;;;16.08;8.30;;;;;;;;;;4910112;29;20123;-82
2022/12/11 06:39:50;;;;;;;13.63;7.63;;;;;;;;;;4927200;29;20036;-81
2022/12/11 06:42:16;;;;;;;13.82;7.13;;;;;;;;;;4910851;29;20043;-81
2022/12/11 06:44:41;;;;;;;15.13;8.15;;;;;;;;;;4926282;29;20429;-81
2022/12/11 06:47:07;;;;;;;14.60;7.80;;;;;;;;;;4927980;29;20044;-81
2022/12/11 06:49:32;;;;;;;15.05;7.43;;;;;;;;;;4931374;29;20047;-82
2022/12/11 06:51:58;;;;;;;13.05;7.50;;;;;;;;;;4930510;29;20032;-82
2022/12/11 06:54:27;;;;;;;14.50;7.45;;;;;;;;;;4909519;29;20067;-81
2022/12/11 06:56:52;;;;;;;12.85;7.00;;;;;;;;;;4927594;29;20051;-82
2022/12/11 06:59:18;;;;;;;13.60;7.53;;;;;;;;;;4927032;29;20103;-82
2022/12/11 07:01:44;;;;;;;13.30;7.38;;;;;;;;;;4896643;29;20046;-82
2022/12/11 07:04:09;;;;;;;13.75;7.53;;;;;;;;;;4893750;29;20088;-83
2022/12/11 07:06:35;;;;;;;15.23;7.35;;;;;;;;;;4910288;29;20036;-82
2022/12/11 07:09:04;;;;;;;15.30;7.22;;;;;;;;;;4910433;29;20096;-81
2022/12/11 07:11:29;;;;;;;13.00;7.30;;;;;;;;;;4914802;29;20056;-82
2022/12/11 07:13:58;;;;;;;16.60;7.13;;;;;;;;;;4887420;29;20040;-82
2022/12/11 07:16:23;;;;;;;14.13;7.57;;;;;;;;;;4896921;29;20040;-81
2022/12/11 07:18:50;;;;;;;17.15;7.50;;;;;;;;;;4891987;29;20047;-79
2022/12/11 07:21:17;;;;;;;13.60;7.35;;;;;;;;;;4908390;29;20525;-81
2022/12/11 07:23:43;;;;;;;13.73;7.68;;;;;;;;;;4908412;29;20104;-81
2022/12/11 07:26:11;;;;;;;19.35;9.27;;;;;;;;;;4908436;29;20413;-80
2022/12/11 07:28:37;;;;;;;18.42;9.82;;;;;;;;;;4908199;29;20036;-81
2022/12/11 07:31:14;;;;;;;14.65;7.95;;;;;;;;;;4904323;29;20123;-81
2022/12/11 07:33:41;;;;;;;13.68;8.10;;;;;;;;;;4906689;29;20032;-81
2022/12/11 07:36:09;;;;;;;14.48;8.13;;;;;;;;;;4907539;29;20044;-81
2022/12/11 07:38:35;;;;;;;14.77;7.95;;;;;;;;;;4907717;29;20494;-81
2022/12/11 07:41:04;;;;;;;17.15;8.57;;;;;;;;;;4907668;29;20495;-81
2022/12/11 07:43:29;;;;;;;14.82;8.40;;;;;;;;;;4908470;29;20502;-82
2022/12/11 07:46:00;;;;;;;16.80;8.88;;;;;;;;;;4913450;29;20075;-82
2022/12/11 07:48:26;;;;;;;15.32;8.75;;;;;;;;;;4888590;29;20042;-81
2022/12/11 07:50:51;;;;;;;16.27;8.98;;;;;;;;;;4917242;29;20056;-80
2022/12/11 07:53:17;;;;;;;16.45;9.00;;;;;;;;;;4896803;29;20036;-79
2022/12/11 07:55:42;;;;;;;14.73;8.35;;;;;;;;;;4920445;29;20095;-78
2022/12/11 07:58:08;;;;;;;15.85;8.55;;;;;;;;;;4922435;29;20414;-78
2022/12/11 08:00:33;;;;;;;12.98;7.43;;;;;;;;;;4923215;29;20145;-80
2022/12/11 08:02:58;;;;;;;14.30;7.68;;;;;;;;;;4917146;29;20061;-80
2022/12/11 08:05:24;;;;;;;12.30;6.68;;;;;;;;;;4916698;29;20032;-81
2022/12/11 08:07:49;;;;;;;11.75;6.43;;;;;;;;;;4904046;29;20508;-80
2022/12/11 08:10:15;;;;;;;10.90;6.13;;;;;;;;;;4925427;29;20054;-80
2022/12/11 08:12:40;;;;;;;12.80;6.63;;;;;;;;;;4897130;29;20036;-77
2022/12/11 08:15:06;;;;;;;13.40;7.53;;;;;;;;;;4904179;29;20520;-79
2022/12/11 08:17:32;;;;;;;13.80;7.35;;;;;;;;;;4897137;29;20036;-79
2022/12/11 08:19:57;;;;;;;10.52;5.97;;;;;;;;;;4908339;23;20051;-84
2022/12/11 08:22:23;;;;;;;10.77;6.03;;;;;;;;;;4919778;29;20486;-87
2022/12/11 08:24:48;;;;;;;10.07;5.95;;;;;;;;;;4903860;29;20050;-86
2022/12/11 08:27:13;;;;;;;15.32;8.27;;;;;;;;;;4921156;29;20036;-86
2022/12/11 08:29:39;;;;;;;18.60;7.65;;;;;;;;;;4901590;29;20040;-70
2022/12/11 08:32:09;;;;;;;15.98;8.55;;;;;;;;;;4904521;29;20176;-86
2022/12/11 08:34:34;;;;;;;11.98;6.90;;;;;;;;;;4922104;29;20043;-87
2022/12/11 08:37:00;;;;;;;10.27;5.80;;;;;;;;;;4920964;29;20051;-85
2022/12/11 08:39:25;;;;;;;10.98;6.13;;;;;;;;;;4904372;29;20039;-87
2022/12/11 08:41:51;;;;;;;9.68;5.47;;;;;;;;;;4903896;29;20032;-89
2022/12/11 08:44:16;;;;;;;9.13;5.43;;;;;;;;;;4903044;29;20048;-87
2022/12/11 08:46:42;;;;;;;20.77;10.60;;;;;;;;;;4903700;29;20028;-88
2022/12/11 08:49:09;;;;;;;12.30;7.32;;;;;;;;;;4920931;29;20104;-87
2022/12/11 08:51:34;;;;;;;9.93;5.88;;;;;;;;;;4903113;29;20037;-88
2022/12/11 08:54:00;;;;;;;29.88;12.70;;;;;;;;;;4901613;29;20591;-84
2022/12/11 08:56:27;;;;;;;19.63;8.10;;;;;;;;;;4928013;29;20091;-86
2022/12/11 08:58:52;;;;;;;9.73;5.80;;;;;;;;;;4903446;29;20038;-87
2022/12/11 09:01:21;;;;;;;9.50;6.20;;;;;;;;;;4920973;29;20040;-87
2022/12/11 09:03:47;;;;;;;10.70;6.35;;;;;;;;;;4902965;29;20091;-87
2022/12/11 09:06:17;;;;;;;11.13;6.38;;;;;;;;;;4902128;29;20497;-85
2022/12/11 09:08:47;;;;;;;11.95;6.57;;;;;;;;;;4902907;29;20043;-88
2022/12/11 09:11:24;;;;;;;12.50;6.57;;;;;;;;;;4901784;29;20042;-86
2022/12/11 09:13:51;;;;;;;10.85;6.55;;;;;;;;;;4902163;29;20136;-86
2022/12/11 09:46:35;;;;;;;9.05;4.85;;;;;;;;;;4924946;29;20064;-85
2022/12/11 09:49:02;;;;;;;9.00;5.05;;;;;;;;;;4924674;29;20060;-86
2022/12/11 09:51:46;;;;;;;13.32;5.47;;;;;;;;;;4906271;29;20039;-86
2022/12/11 09:54:17;;;;;;;9.90;5.35;;;;;;;;;;4906614;29;20079;-85
2022/12/11 09:57:09;;;;;;;12.10;6.60;;;;;;;;;;4921569;29;20037;-84
2022/12/11 09:59:53;;;;;;;13.65;5.93;;;;;;;;;;4932009;29;20048;-87
2022/12/11 10:02:21;;;;;;;;;;;;;;;;;;4906261;29;20044;-85
2022/12/11 10:05:01;;;;;;;8.10;4.13;;;;;;;;;;4923617;29;19915;-85
2022/12/11 10:07:52;;;;;;;8.80;4.72;;;;;;;;;;4923927;29;20035;-84
2022/12/11 10:10:20;;;;;;;9.52;5.05;;;;;;;;;;4924763;29;20071;-84
2022/12/11 10:12:49;;;;;;;8.52;5.13;;;;;;;;;;4924672;29;20048;-85
2022/12/11 10:15:24;;;;;;;9.60;5.15;;;;;;;;;;4924496;29;20028;-86
2022/12/11 10:17:52;;;;;;;11.50;6.22;;;;;;;;;;4924317;29;20047;-85
2022/12/11 10:20:32;;;;;;;8.65;5.30;;;;;;;;;;4907146;29;20043;-84
2022/12/11 10:22:58;;;;;;;8.68;4.68;;;;;;;;;;4924419;29;20036;-87
2022/12/11 10:25:31;;;;;;;9.40;5.57;;;;;;;;;;4924722;29;20117;-87
2022/12/11 10:27:56;;;;;;;17.92;7.90;;;;;;;;;;4923132;29;20071;-86
2022/12/11 10:30:25;;;;;;;14.60;7.63;;;;;;;;;;4923447;29;20063;-86
2022/12/11 10:33:05;;;;;;;14.20;7.75;;;;;;;;;;4922060;29;20058;-87
2022/12/11 10:35:51;;;;;;;13.85;7.82;;;;;;;;;;4922165;29;20509;-87
2022/12/11 10:38:42;;;;;;;12.48;6.57;;;;;;;;;;4922779;29;20044;-86
2022/12/11 10:41:17;;;;;;;9.38;5.32;;;;;;;;;;4922723;29;20044;-86
2022/12/11 10:43:48;;;;;;;10.07;5.57;;;;;;;;;;4906133;29;20481;-85
2022/12/11 10:46:21;;;;;;;9.95;6.30;;;;;;;;;;4922422;29;20180;-85
2022/12/11 10:48:52;;;;;;;9.00;5.28;;;;;;;;;;4906962;29;20084;-86
2022/12/11 10:51:21;;;;;;;8.93;4.88;;;;;;;;;;4924242;29;20044;-86
2022/12/11 10:53:56;;;;;;;10.45;5.90;;;;;;;;;;4923642;29;20095;-85
2022/12/11 10:56:30;;;;;;;15.85;9.77;;;;;;;;;;4923340;29;20047;-85
2022/12/11 10:58:57;;;;;;;15.18;9.02;;;;;;;;;;4922249;29;20036;-85
2022/12/11 11:01:25;;;;;;;10.95;6.47;;;;;;;;;;4922820;29;20032;-84
2022/12/11 11:04:03;;;;;;;10.80;5.30;;;;;;;;;;4914016;29;20218;-85
2022/12/11 11:06:28;;;;;;;7.18;4.72;;;;;;;;;;4904982;29;20132;-85
2022/12/11 11:08:57;;;;;;;6.55;3.97;;;;;;;;;;4905347;29;20064;-85
2022/12/11 11:11:23;;;;;;;6.55;3.88;;;;;;;;;;4906012;29;20036;-86
2022/12/11 11:13:48;;;;;;;5.72;3.53;;;;;;;;;;4923122;29;20139;-88
2022/12/11 11:16:16;;;;;;;6.47;3.92;;;;;;;;;;4904264;29;20028;-85
2022/12/11 11:18:50;;;;;;;6.85;3.67;;;;;;;;;;4904120;29;20059;-86
2022/12/11 11:21:18;;;;;;;5.78;3.67;;;;;;;;;;4920927;29;20043;-86
2022/12/11 11:23:44;;;;;;;7.45;3.78;;;;;;;;;;4904481;29;20054;-84
2022/12/11 11:26:10;;;;;;;6.68;4.22;;;;;;;;;;4922022;29;20032;-85
2022/12/11 11:28:41;;;;;;;7.32;4.18;;;;;;;;;;4920823;29;20051;-84
2022/12/11 11:31:13;;;;;;;8.77;3.67;;;;;;;;;;4903897;29;20046;-86
2022/12/11 11:34:02;;;;;;;6.72;4.20;;;;;;;;;;4921852;29;20104;-86
2022/12/11 11:36:30;;;;;;;6.35;3.72;;;;;;;;;;4921441;29;20051;-84
2022/12/11 11:39:24;;;;;;;7.43;4.47;;;;;;;;;;4887788;29;20434;-85
2022/12/11 11:42:02;;;;;;;8.43;4.50;;;;;;;;;;4902963;29;20408;-86
2022/12/11 11:44:44;;;;;;;7.85;4.43;;;;;;;;;;4920671;29;20036;-86
2022/12/11 11:47:18;;;;;;;9.40;5.10;;;;;;;;;;4920954;29;20036;-84
2022/12/11 11:50:02;;;;;;;7.60;4.28;;;;;;;;;;4911029;29;20482;-83
2022/12/11 11:52:40;;;;;;;8.63;5.15;;;;;;;;;;4925986;29;20516;-85
2022/12/11 11:55:12;;;;;;;8.43;4.80;;;;;;;;;;4907083;29;20079;-85
2022/12/11 11:57:44;;;;;;;11.80;4.90;;;;;;;;;;4920964;29;20032;-85
2022/12/11 12:00:29;;;;;;;8.27;4.93;;;;;;;;;;4904870;29;20051;-82
2022/12/11 12:03:08;;;;;;;9.23;4.35;;;;;;;;;;4928040;29;20040;-83
2022/12/11 12:05:45;;;;;;;9.00;4.90;;;;;;;;;;4924765;29;20043;-84
2022/12/11 12:08:23;;;;;;;10.05;5.30;;;;;;;;;;4932335;28;20120;-84
2022/12/11 12:11:07;;;;;;;11.18;6.25;;;;;;;;;;4924052;29;20048;-86
2022/12/11 12:13:41;;;;;;;10.07;5.05;;;;;;;;;;4922286;29;20068;-84
2022/12/11 12:16:31;;;;;;;7.85;4.43;;;;;;;;;;4923672;29;20115;-86
2022/12/11 12:19:06;;;;;;;32.50;12.80;;;;;;;;;;4907416;29;20048;-86
2022/12/11 12:21:37;;;;;;;15.68;7.82;;;;;;;;;;4922855;29;20059;-85
2022/12/11 12:24:42;;;;;;;8.15;4.80;;;;;;;;;;4922771;29;20095;-86
2022/12/11 12:27:42;;;;;;;9.25;4.85;;;;;;;;;;4906009;29;20465;-85
2022/12/11 12:30:12;;;;;;;8.80;4.85;;;;;;;;;;4923535;29;20051;-85
2022/12/11 12:32:50;;;;;;;7.78;4.45;;;;;;;;;;4905954;29;20034;-85
2022/12/11 12:35:35;;;;;;;9.20;5.13;;;;;;;;;;4921009;29;20060;-85
2022/12/11 12:38:14;;;;;;;10.13;4.70;;;;;;;;;;4904107;29;20064;-85
2022/12/11 12:41:13;;;;;;;7.75;4.68;;;;;;;;;;4904161;29;20043;-85
2022/12/11 12:43:38;;;;;;;16.38;8.13;;;;;;;;;;4923080;29;20036;-85
2022/12/11 12:46:30;;;;;;;11.27;5.70;;;;;;;;;;4904234;29;20036;-85
2022/12/11 12:48:58;;;;;;;6.28;3.60;;;;;;;;;;4893874;29;20044;-86
2022/12/11 12:51:24;;;;;;;7.47;4.15;;;;;;;;;;4920271;29;20087;-84
2022/12/11 12:54:00;;;;;;;7.03;3.80;;;;;;;;;;4903868;29;20039;-86
2022/12/11 12:56:28;;;;;;;5.97;3.65;;;;;;;;;;4903006;29;20359;-86
2022/12/11 12:58:53;;;;;;;6.22;3.65;;;;;;;;;;4920603;29;20040;-87
2022/12/11 13:01:22;;;;;;;5.65;3.58;;;;;;;;;;4921537;29;20046;-87
2022/12/11 13:04:01;;;;;;;9.77;5.20;;;;;;;;;;4904626;29;20135;-84
2022/12/11 13:06:38;;;;;;;8.40;4.70;;;;;;;;;;4923388;29;20059;-84
2022/12/11 13:09:21;;;;;;;8.15;4.88;;;;;;;;;;4923633;29;20119;-82
2022/12/11 13:11:52;;;;;;;7.28;4.25;;;;;;;;;;4928502;29;20062;-86
2022/12/11 13:14:17;;;;;;;9.90;5.50;;;;;;;;;;4903690;29;20055;-83
2022/12/11 13:17:05;;;;;;;11.43;6.30;;;;;;;;;;4904630;29;20040;-85
2022/12/11 13:19:33;;;;;;;8.23;5.07;;;;;;;;;;4919979;29;20470;-86
2022/12/11 13:22:13;;;;;;;8.52;4.80;;;;;;;;;;4903861;29;20044;-85
2022/12/11 13:25:00;;;;;;;10.30;5.55;;;;;;;;;;4888549;29;20044;-83
2022/12/11 13:27:28;;;;;;;10.50;5.38;;;;;;;;;;4904417;29;20047;-85
2022/12/11 13:30:21;;;;;;;12.65;6.53;;;;;;;;;;4903547;29;20040;-85
2022/12/11 13:33:14;;;;;;;10.87;5.23;;;;;;;;;;4921704;29;20055;-85
2022/12/11 13:35:40;;;;;;;9.05;5.03;;;;;;;;;;4920593;29;20375;-84
2022/12/11 13:38:14;;;;;;;9.90;5.50;;;;;;;;;;4905940;29;20067;-87
2022/12/11 13:40:43;;;;;;;10.05;5.32;;;;;;;;;;4922892;29;20032;-85
2022/12/11 13:43:18;;;;;;;12.13;5.45;;;;;;;;;;4906699;29;20497;-85
2022/12/11 13:45:47;;;;;;;9.15;5.38;;;;;;;;;;4922718;29;20052;-84
2022/12/11 13:48:18;;;;;;;10.15;5.57;;;;;;;;;;4905699;29;20069;-85
2022/12/11 13:50:45;;;;;;;10.10;5.70;;;;;;;;;;4920794;29;20040;-85
2022/12/11 13:53:15;;;;;;;10.32;5.50;;;;;;;;;;4905618;29;20048;-87
2022/12/11 13:55:41;;;;;;;12.90;6.10;;;;;;;;;;4905852;29;20103;-86
2022/12/11 13:58:17;;;;;;;12.93;6.60;;;;;;;;;;4922864;29;20064;-85
2022/12/11 14:00:57;;;;;;;10.98;6.07;;;;;;;;;;4922608;29;20100;-86
2022/12/11 14:03:23;;;;;;;14.45;6.18;;;;;;;;;;4921128;29;20051;-85
2022/12/11 14:05:49;;;;;;;12.70;6.43;;;;;;;;;;4920274;29;20127;-87
2022/12/11 14:08:22;;;;;;;12.07;6.07;;;;;;;;;;4921208;29;20036;-85
2022/12/11 14:10:53;;;;;;;12.98;6.70;;;;;;;;;;4939773;29;20479;-86
2022/12/11 14:13:26;;;;;;;14.75;8.52;;;;;;;;;;4921090;29;20047;-83
2022/12/11 14:15:52;;;;;;;12.10;6.90;;;;;;;;;;4930858;29;20413;-85
2022/12/11 14:18:25;;;;;;;13.15;6.90;;;;;;;;;;4939979;29;20036;-84
2022/12/11 14:20:59;;;;;;;13.20;7.10;;;;;;;;;;4950280;23;20401;-83
2022/12/11 14:23:34;;;;;;;11.10;5.95;;;;;;;;;;4949437;29;20046;-85
2022/12/11 14:26:03;;;;;;;12.25;6.65;;;;;;;;;;4947021;29;20055;-83
2022/12/11 14:28:36;;;;;;;12.95;6.95;;;;;;;;;;4950007;29;20104;-84
2022/12/11 14:31:02;;;;;;;;;;;;;;;;;;4947873;29;20040;-83
2022/12/11 14:33:32;;;;;;;91.13;22.70;;;;;;;;;;4933278;29;19937;-84
2022/12/11 14:36:00;;;;;;;20.23;9.55;;;;;;;;;;4949766;29;20393;-84
2022/12/11 14:38:51;;;;;;;46.00;16.48;;;;;;;;;;4934017;29;20163;-84
2022/12/11 14:41:21;;;;;;;40.80;15.52;;;;;;;;;;4950540;29;20083;-85
2022/12/11 14:43:54;;;;;;;19.33;9.70;;;;;;;;;;4951713;29;20039;-85
2022/12/11 14:46:33;;;;;;;16.40;8.57;;;;;;;;;;4950300;29;20043;-85
2022/12/11 14:49:05;;;;;;;16.00;8.38;;;;;;;;;;4948907;29;20405;-85
2022/12/11 14:51:37;;;;;;;12.50;7.22;;;;;;;;;;4950291;29;20091;-85
2022/12/11 14:54:04;;;;;;;14.73;7.60;;;;;;;;;;4950957;29;20201;-85
2022/12/11 14:56:31;;;;;;;15.05;7.70;;;;;;;;;;4932935;29;20515;-84
2022/12/11 14:59:14;;;;;;;14.45;7.55;;;;;;;;;;4949911;29;20039;-85
2022/12/11 15:01:40;;;;;;;;;;;;;;;;;;4933259;29;20095;-82
2022/12/11 15:04:14;;;;;;;14.93;8.02;;;;;;;;;;4949624;29;20292;-86
2022/12/11 15:06:46;;;;;;;14.98;8.10;;;;;;;;;;4949833;29;20034;-86
2022/12/11 15:09:41;;;;;;;15.23;7.88;;;;;;;;;;4931200;29;20472;-86
2022/12/11 15:12:11;;;;;;;14.98;8.13;;;;;;;;;;4947528;29;20052;-85
2022/12/11 15:15:01;;;;;;;15.40;8.30;;;;;;;;;;4948785;29;20461;-85
2022/12/11 15:17:29;;;;;;;14.50;8.02;;;;;;;;;;4932622;29;20036;-85
2022/12/11 15:20:08;;;;;;;14.93;8.50;;;;;;;;;;4929422;29;20048;-86
2022/12/11 15:22:35;;;;;;;15.57;8.43;;;;;;;;;;4948714;29;20493;-86
2022/12/11 15:25:01;;;;;;;15.05;8.73;;;;;;;;;;4945004;29;20094;-86
2022/12/11 15:27:35;;;;;;;15.02;8.50;;;;;;;;;;4943432;29;20449;-86
2022/12/11 15:30:13;;;;;;;16.55;8.75;;;;;;;;;;4942193;29;20031;-87
2022/12/11 15:32:39;;;;;;;16.83;8.93;;;;;;;;;;4909944;29;20039;-86